createdAt,value
2022-10-13T00:02:07.250Z,7.81
2022-10-13T00:07:13.020Z,7.81
2022-10-13T00:12:16.962Z,7.82
2022-10-13T00:17:21.510Z,7.84
2022-10-13T00:22:24.802Z,7.82
2022-10-13T00:27:28.980Z,7.81
2022-10-13T00:32:32.539Z,7.85
2022-10-13T00:37:36.757Z,7.95
2022-10-13T00:42:42.324Z,8.00
2022-10-13T00:47:48.709Z,8.01
2022-10-13T00:52:55.503Z,7.96
2022-10-13T00:58:05.409Z,7.93
2022-10-13T01:03:11.821Z,7.90
2022-10-13T01:08:18.551Z,7.84
2022-10-13T01:13:28.413Z,7.77
2022-10-13T01:19:07.452Z,7.70
2022-10-13T01:24:52.157Z,7.63
2022-10-13T01:30:03.644Z,7.57
2022-10-13T01:35:21.455Z,7.49
2022-10-13T01:40:32.718Z,7.46
2022-10-13T01:45:42.605Z,7.46
2022-10-13T01:50:52.254Z,7.42
2022-10-13T01:55:59.232Z,7.38
2022-10-13T02:01:41.670Z,7.30
2022-10-13T02:07:08.517Z,7.21
2022-10-13T02:12:21.377Z,7.14
2022-10-13T02:17:29.461Z,7.14
2022-10-13T02:22:41.370Z,7.11
2022-10-13T02:27:45.910Z,7.06
2022-10-13T02:32:49.076Z,7.03
2022-10-13T02:37:54.879Z,6.98
2022-10-13T02:42:59.321Z,7.00
2022-10-13T02:48:04.199Z,7.07
2022-10-13T02:53:08.182Z,7.09
2022-10-13T02:58:11.238Z,7.07
2022-10-13T03:03:15.519Z,7.06
2022-10-13T03:08:20.781Z,7.04
2022-10-13T03:13:24.703Z,7.02
2022-10-13T03:18:28.622Z,6.90
2022-10-13T03:23:33.656Z,6.81
2022-10-13T03:28:37.977Z,6.78
2022-10-13T03:33:41.695Z,6.73
2022-10-13T03:38:45.695Z,6.64
2022-10-13T03:43:50.741Z,6.55
2022-10-13T03:48:57.720Z,6.53
2022-10-13T03:54:00.831Z,6.56
2022-10-13T03:59:05.422Z,6.64
2022-10-13T04:04:12.366Z,6.76
2022-10-13T04:09:18.396Z,6.79
2022-10-13T04:14:23.146Z,6.81
2022-10-13T04:19:27.718Z,6.79
2022-10-13T04:24:31.791Z,6.73
2022-10-13T04:29:36.083Z,6.69
2022-10-13T04:34:39.654Z,6.63
2022-10-13T04:39:42.998Z,6.59
2022-10-13T04:44:47.037Z,6.54
2022-10-13T04:49:51.885Z,6.50
2022-10-13T04:54:55.078Z,6.52
2022-10-13T04:59:58.595Z,6.56
2022-10-13T05:05:03.350Z,6.59
2022-10-13T05:10:08.309Z,6.59
2022-10-13T05:15:12.828Z,6.60
2022-10-13T05:20:18.387Z,6.55
2022-10-13T05:25:22.127Z,6.48
2022-10-13T05:30:25.648Z,6.43
2022-10-13T05:35:29.362Z,6.41
2022-10-13T05:40:33.972Z,6.39
2022-10-13T05:45:39.252Z,6.39
2022-10-13T05:50:43.992Z,6.41
2022-10-13T05:55:49.359Z,6.45
2022-10-13T06:00:55.523Z,6.57
2022-10-13T06:05:58.684Z,6.67
2022-10-13T06:11:03.415Z,6.76
2022-10-13T06:16:08.065Z,6.87
2022-10-13T06:21:11.925Z,6.96
2022-10-13T06:26:15.196Z,7.05
2022-10-13T06:31:18.932Z,7.15
2022-10-13T06:36:23.630Z,7.23
2022-10-13T06:41:30.610Z,7.33
2022-10-13T06:46:34.876Z,7.44
2022-10-13T06:51:40.516Z,7.58
2022-10-13T06:56:44.507Z,7.77
2022-10-13T07:01:50.683Z,7.93
2022-10-13T07:06:56.634Z,8.08
2022-10-13T07:11:59.667Z,8.20
2022-10-13T07:17:04.582Z,8.32
2022-10-13T07:22:07.633Z,8.48
2022-10-13T07:27:11.753Z,8.62
2022-10-13T07:32:17.927Z,8.74
2022-10-13T07:37:22.565Z,8.85
2022-10-13T07:42:28.605Z,8.98
2022-10-13T07:47:32.354Z,9.13
2022-10-13T07:52:37.474Z,9.33
2022-10-13T07:57:40.318Z,9.48
2022-10-13T08:02:45.102Z,9.61
2022-10-13T08:07:49.249Z,9.74
2022-10-13T08:12:52.618Z,9.93
2022-10-13T08:17:56.489Z,10.07
2022-10-13T08:23:02.843Z,10.19
2022-10-13T08:28:08.065Z,10.29
2022-10-13T08:33:15.623Z,10.39
2022-10-13T08:38:19.235Z,10.52
2022-10-13T08:43:24.924Z,10.64
2022-10-13T08:48:32.902Z,10.79
2022-10-13T08:53:43.791Z,10.94
2022-10-13T08:58:49.347Z,11.07
2022-10-13T09:03:52.715Z,11.20
2022-10-13T09:09:02.620Z,11.34
2022-10-13T09:14:31.697Z,11.55
2022-10-13T09:19:37.004Z,11.78
2022-10-13T09:24:42.823Z,11.95
2022-10-13T09:29:47.184Z,12.09
2022-10-13T09:34:54.326Z,12.24
2022-10-13T09:40:21.214Z,12.38
2022-10-13T09:45:27.831Z,12.51
2022-10-13T09:50:34.878Z,12.66
2022-10-13T09:55:39.229Z,12.78
2022-10-13T10:00:42.746Z,12.91
2022-10-13T10:05:50.062Z,13.07
2022-10-13T10:10:56.607Z,13.19
2022-10-13T10:16:21.078Z,13.35
2022-10-13T10:21:50.751Z,13.61
2022-10-13T10:26:54.425Z,13.84
2022-10-13T10:32:14.193Z,14.02
2022-10-13T10:37:36.709Z,14.15
2022-10-13T10:42:53.335Z,14.25
2022-10-13T10:48:22.706Z,14.33
2022-10-13T10:54:12.082Z,14.45
2022-10-13T10:59:17.046Z,14.59
2022-10-13T11:04:23.513Z,14.72
2022-10-13T11:09:47.639Z,14.82
2022-10-13T11:15:31.524Z,14.93
2022-10-13T11:20:35.492Z,15.01
2022-10-13T11:25:49.575Z,15.07
2022-10-13T11:30:55.979Z,15.12
2022-10-13T11:36:37.512Z,15.24
2022-10-13T11:42:14.629Z,15.38
2022-10-13T11:48:13.864Z,15.52
2022-10-13T11:53:25.334Z,15.66
2022-10-13T11:58:31.195Z,15.78
2022-10-13T12:03:38.772Z,15.85
2022-10-13T12:08:52.136Z,15.90
2022-10-13T12:13:57.239Z,15.92
2022-10-13T12:19:22.643Z,15.95
2022-10-13T12:24:29.371Z,15.98
2022-10-13T12:29:37.170Z,16.01
2022-10-13T12:34:41.643Z,16.03
2022-10-13T12:39:46.573Z,16.06
2022-10-13T12:44:50.067Z,16.15
2022-10-13T12:50:29.863Z,16.48
2022-10-13T12:55:34.546Z,17.14
2022-10-13T13:00:37.764Z,17.66
2022-10-13T13:05:50.794Z,18.05
2022-10-13T13:11:02.194Z,18.34
2022-10-13T13:16:21.134Z,18.50
2022-10-13T13:21:25.516Z,18.57
2022-10-13T13:26:34.721Z,18.58
2022-10-13T13:31:38.130Z,18.55
2022-10-13T13:36:44.677Z,18.59
2022-10-13T13:41:48.474Z,18.57
2022-10-13T13:46:51.645Z,18.57
2022-10-13T13:51:55.844Z,18.59
2022-10-13T13:57:00.654Z,18.59
2022-10-13T14:02:07.066Z,18.58
2022-10-13T14:07:12.135Z,18.54
2022-10-13T14:12:16.589Z,18.54
2022-10-13T14:17:20.865Z,18.53
2022-10-13T14:22:24.978Z,18.57
2022-10-13T14:27:28.485Z,18.58
2022-10-13T14:32:36.255Z,18.56
2022-10-13T14:37:40.214Z,18.53
2022-10-13T14:42:45.111Z,18.53
2022-10-13T14:47:54.193Z,18.48
2022-10-13T14:52:57.572Z,18.28
2022-10-13T14:58:03.718Z,17.94
2022-10-13T15:03:07.426Z,17.61
2022-10-13T15:08:11.170Z,17.45
2022-10-13T15:13:14.831Z,17.45
2022-10-13T15:18:19.944Z,17.19
2022-10-13T15:23:24.109Z,16.91
2022-10-13T15:28:38.938Z,16.66
2022-10-13T15:33:49.633Z,16.45
2022-10-13T15:38:53.150Z,16.26
2022-10-13T15:43:59.734Z,16.06
2022-10-13T15:49:03.213Z,15.88
2022-10-13T15:54:06.587Z,15.72
2022-10-13T15:59:11.255Z,15.58
2022-10-13T16:04:14.409Z,15.44
2022-10-13T16:09:18.871Z,15.30
2022-10-13T16:14:22.215Z,15.16
2022-10-13T16:19:26.398Z,15.04
2022-10-13T16:24:32.461Z,14.95
2022-10-13T16:29:36.042Z,14.87
2022-10-13T16:34:40.045Z,14.80
2022-10-13T16:39:46.581Z,14.72
2022-10-13T16:44:55.372Z,14.63
2022-10-13T16:50:10.351Z,14.53
2022-10-13T16:55:15.984Z,14.43
2022-10-13T17:00:19.376Z,14.33
2022-10-13T17:05:23.593Z,14.22
2022-10-13T17:10:28.918Z,14.10
2022-10-13T17:15:37.559Z,14.01
2022-10-13T17:20:42.116Z,13.92
2022-10-13T17:25:46.299Z,13.84
2022-10-13T17:31:04.904Z,13.77
2022-10-13T17:36:38.725Z,13.70
2022-10-13T17:41:46.104Z,13.59
2022-10-13T17:46:51.091Z,13.51
2022-10-13T17:51:56.244Z,13.43
2022-10-13T17:57:00.645Z,13.38
2022-10-13T18:02:05.279Z,13.33
2022-10-13T18:07:08.744Z,13.29
2022-10-13T18:12:13.324Z,13.29
2022-10-13T18:17:17.673Z,13.28
2022-10-13T18:22:22.435Z,13.29
2022-10-13T18:27:27.870Z,13.34
2022-10-13T18:32:31.424Z,13.43
2022-10-13T18:37:35.887Z,13.51
2022-10-13T18:42:42.294Z,13.55
2022-10-13T18:47:53.473Z,13.54
2022-10-13T18:52:57.519Z,13.45
2022-10-13T18:58:01.390Z,13.38
2022-10-13T19:03:04.520Z,13.29
2022-10-13T19:08:10.069Z,13.19
2022-10-13T19:13:14.252Z,13.10
2022-10-13T19:18:18.308Z,13.01
2022-10-13T19:23:23.089Z,12.92
2022-10-13T19:28:27.866Z,12.87
2022-10-13T19:33:32.084Z,12.81
2022-10-13T19:38:36.309Z,12.75
2022-10-13T19:43:40.940Z,12.65
2022-10-13T19:48:45.760Z,12.56
2022-10-13T19:53:49.703Z,12.47
2022-10-13T19:58:55.843Z,12.42
2022-10-13T20:03:59.767Z,12.41
2022-10-13T20:09:04.299Z,12.38
2022-10-13T20:14:08.163Z,12.33
2022-10-13T20:19:14.235Z,12.28
2022-10-13T20:24:22.260Z,12.20
2022-10-13T20:29:26.230Z,12.14
2022-10-13T20:34:29.132Z,12.06
2022-10-13T20:39:32.972Z,11.98
2022-10-13T20:44:36.718Z,11.91
2022-10-13T20:49:39.728Z,11.81
2022-10-13T20:54:45.578Z,11.70
2022-10-13T20:59:50.180Z,11.60
2022-10-13T21:04:54.538Z,11.54
2022-10-13T21:09:58.517Z,11.51
2022-10-13T21:15:05.022Z,11.46
2022-10-13T21:20:10.961Z,11.37
2022-10-13T21:25:16.148Z,11.28
2022-10-13T21:30:21.647Z,11.21
2022-10-13T21:35:26.280Z,11.15
2022-10-13T21:40:30.571Z,11.08
2022-10-13T21:45:35.297Z,11.02
2022-10-13T21:50:40.032Z,10.94
2022-10-13T21:55:43.960Z,10.85
2022-10-13T22:00:48.964Z,10.77
2022-10-13T22:05:53.553Z,10.74
2022-10-13T22:10:57.965Z,10.72
2022-10-13T22:16:10.370Z,10.71
2022-10-13T22:21:20.414Z,10.67
2022-10-13T22:26:25.540Z,10.63
2022-10-13T22:31:33.424Z,10.57
2022-10-13T22:36:45.201Z,10.50
2022-10-13T22:41:49.675Z,10.46
2022-10-13T22:46:54.525Z,10.44
2022-10-13T22:51:57.579Z,10.43
2022-10-13T22:57:00.961Z,10.47
2022-10-13T23:02:05.703Z,10.50
2022-10-13T23:07:13.220Z,10.57
2022-10-13T23:12:17.057Z,10.63
2022-10-13T23:17:23.984Z,10.66
2022-10-13T23:22:30.219Z,10.68
2022-10-13T23:27:35.377Z,10.68
2022-10-13T23:32:39.166Z,10.64
2022-10-13T23:37:43.897Z,10.58
2022-10-13T23:42:48.390Z,10.52
2022-10-13T23:47:51.710Z,10.45
2022-10-13T23:52:57.020Z,10.36
2022-10-13T23:58:00.486Z,10.30
